Weather History for Three Rivers, MI

Change the Weather History Date:

Monday, January 7, 2013

  Actual Average Record
Temperature  
Mean Temperature 26 °F -  
Max Temperature 33 °F 30 °F 50 °F (1949)
Min Temperature 19 °F 16 °F -13 °F (1970)
Degree Days  
Heating Degree Days 39    
Moisture  
Dew Point 22 °F    
Average Humidity 78    
Maximum Humidity 92    
Minimum Humidity 66    
Precipitation  
Precipitation 0.00 in - - ()
Sea Level Pressure  
Sea Level Pressure 30.26 in    
Wind  
Wind Speed 8 mph (SSW)    
Max Wind Speed 21 mph    
Max Gust Speed 29 mph    
Visibility 8 miles    
Events      
Averages and records for this station are not official NWS values.
T = Trace of Precipitation, MM = Missing Value Source: NWS Daily Summary

Daily Weather History Graph

Daily Weather History Graph

Search for Another Location

Airport:

Trip Planner

Search our weather history database for the weather conditions in past years. The results will help you decide how hot, cold, wet, or windy it might be!

Date:

Astronomy

Jan. 07, 2013 Rise Set
Actual Time 8:10 AM EST 5:27 PM EST
Civil Twilight 7:38 AM EST 5:59 PM EST
Nautical Twilight 7:04 AM EST 6:33 PM EST
Astronomical Twilight 6:30 AM EST 7:07 PM EST
Moon 3:32 AM EST (1/7) 1:39 PM EST (1/7)
Length of Visible Light 10h 20m
Length of Day
9h 17m
Waning Crescent, 23% of the Moon is Illuminated
Jan 7
Waning Crescent
Jan 11
New
Jan 18
First Quarter
Jan 26
Full
Feb 3
Last Quarter

Hourly Weather History & Observations

Time (EST) Temp. Windchill Dew Point Humidity Pressure Visibility Wind Dir Wind Speed Gust Speed Precip Events Conditions
12:34 AM 32.0 °F 27.5 °F 23.4 °F 70% 30.30 in 10.0 mi West 4.6 mph - N/A   Overcast
12:55 AM 32.0 °F 28.7 °F 23.4 °F 70% 30.29 in 10.0 mi WNW 3.5 mph - N/A   Overcast
1:15 AM 32.0 °F 28.7 °F 23.2 °F 70% 30.30 in 10.0 mi WNW 3.5 mph - N/A   Overcast
1:34 AM 32.0 °F - 23.0 °F 69% 30.29 in 10.0 mi Calm Calm - N/A   Overcast
1:55 AM 32.0 °F - 22.1 °F 67% 30.29 in 10.0 mi Calm Calm - N/A   Overcast
2:15 AM 31.1 °F - 22.1 °F 69% 30.29 in 10.0 mi Calm Calm - N/A   Overcast
2:35 AM 30.2 °F 26.7 °F 22.6 °F 73% 30.30 in 10.0 mi WSW 3.5 mph - N/A   Overcast
2:55 AM 29.8 °F 26.3 °F 23.9 °F 79% 30.31 in 10.0 mi WSW 3.5 mph - N/A   Overcast
3:15 AM 30.0 °F - 24.8 °F 81% 30.31 in 10.0 mi Calm Calm - N/A   Overcast
3:35 AM 29.1 °F - 24.4 °F 83% 30.32 in 10.0 mi Calm Calm - N/A   Mostly Cloudy
3:55 AM 27.5 °F 23.6 °F 23.7 °F 86% 30.32 in 7.0 mi WSW 3.5 mph - N/A   Mostly Cloudy
4:14 AM 27.3 °F 23.4 °F 23.7 °F 86% 30.32 in 7.0 mi WSW 3.5 mph - N/A   Scattered Clouds
4:35 AM 26.6 °F 22.6 °F 23.0 °F 86% 30.33 in 7.0 mi SW 3.5 mph - N/A   Clear
4:55 AM 25.7 °F 21.5 °F 22.5 °F 88% 30.33 in 7.0 mi SW 3.5 mph - N/A   Clear
5:14 AM 22.5 °F 17.8 °F 19.8 °F 89% 30.32 in 4.0 mi SSW 3.5 mph - N/A   Clear
5:35 AM 21.7 °F 14.3 °F 19.2 °F 90% 30.33 in 4.0 mi SSW 5.8 mph - N/A   Clear
5:55 AM 21.7 °F 15.5 °F 19.6 °F 91% 30.33 in 4.0 mi South 4.6 mph - N/A   Clear
6:14 AM 21.4 °F 12.8 °F 19.4 °F 92% 30.34 in 3.0 mi SSW 6.9 mph - N/A   Clear
6:35 AM 20.8 °F 11.2 °F 18.7 °F 91% 30.34 in 3.0 mi SSW 8.1 mph - N/A   Clear
6:55 AM 20.7 °F 11.0 °F 18.5 °F 91% 30.34 in 4.0 mi SSW 8.1 mph - N/A   Clear
7:35 AM 20.8 °F 11.2 °F 18.5 °F 91% 30.35 in 4.0 mi SSW 8.1 mph - N/A   Clear
7:54 AM 20.3 °F 9.8 °F 18.3 °F 92% 30.36 in 4.0 mi SSW 9.2 mph - N/A   Clear
8:15 AM 19.9 °F 10.1 °F 17.8 °F 91% 30.36 in 3.0 mi SSW 8.1 mph - N/A   Clear
8:35 AM 19.8 °F 10.8 °F 17.8 °F 92% 30.36 in 3.0 mi SSW 6.9 mph - N/A   Clear
8:55 AM 19.9 °F 11.1 °F 17.8 °F 91% 30.36 in 3.0 mi South 6.9 mph - N/A   Clear
9:15 AM 20.7 °F 11.0 °F 18.1 °F 90% 30.35 in 4.0 mi South 8.1 mph - N/A   Clear
9:34 AM 21.2 °F 10.9 °F 18.5 °F 89% 30.35 in 4.0 mi South 9.2 mph - N/A   Clear
10:15 AM 23.5 °F 13.0 °F 19.4 °F 84% 30.35 in 5.0 mi South 10.4 mph - N/A   Clear
10:34 AM 25.5 °F 14.9 °F 20.3 °F 81% 30.35 in 7.0 mi SSW 11.5 mph - N/A   Clear
10:55 AM 27.0 °F 16.1 °F 20.1 °F 75% 30.35 in 10.0 mi SSW 12.7 mph 21.9 mph N/A   Clear
11:15 AM 27.9 °F 15.5 °F 20.3 °F 73% 30.35 in 10.0 mi SSW 17.3 mph 20.7 mph N/A   Clear
11:34 AM 28.4 °F 16.2 °F 20.8 °F 73% 30.34 in 10.0 mi SSW 17.3 mph - N/A   Clear
11:55 AM 29.3 °F 17.7 °F 21.2 °F 72% 30.32 in 10.0 mi SSW 16.1 mph - N/A   Clear
12:15 PM 29.8 °F 18.0 °F 21.4 °F 71% 30.30 in 10.0 mi SSW 17.3 mph 23.0 mph N/A   Clear
12:34 PM 30.9 °F 20.7 °F 21.9 °F 69% 30.29 in 10.0 mi SSW 13.8 mph 18.4 mph N/A   Clear
12:55 PM 31.8 °F 19.9 °F 22.1 °F 67% 30.26 in 10.0 mi SSW 19.6 mph 27.6 mph N/A   Clear
1:15 PM 32.0 °F 20.1 °F 22.3 °F 67% 30.26 in 10.0 mi SSW 19.6 mph 28.8 mph N/A   Clear
1:35 PM 32.4 °F 20.6 °F 22.5 °F 67% 30.25 in 10.0 mi SSW 19.6 mph 25.3 mph N/A   Clear
2:14 PM 32.9 °F 21.0 °F 22.8 °F 66% 30.22 in 10.0 mi SSW 20.7 mph 26.5 mph N/A   Clear
2:35 PM 32.9 °F 22.0 °F 23.2 °F 67% 30.22 in 10.0 mi SSW 17.3 mph 26.5 mph N/A   Clear
2:55 PM 33.3 °F 22.1 °F 23.4 °F 67% 30.21 in 10.0 mi SSW 18.4 mph 26.5 mph N/A   Clear
3:14 PM 33.6 °F 22.2 °F 23.4 °F 66% 30.20 in 10.0 mi SSW 19.6 mph 27.6 mph N/A   Clear
3:35 PM 33.4 °F 23.1 °F 23.0 °F 66% 30.20 in 10.0 mi SSW 16.1 mph - N/A   Clear
3:55 PM 33.1 °F 23.9 °F 23.5 °F 68% 30.21 in 10.0 mi SSW 12.7 mph 17.3 mph N/A   Clear
4:14 PM 33.1 °F 23.9 °F 22.8 °F 66% 30.22 in 10.0 mi SSW 12.7 mph 21.9 mph N/A   Clear
4:35 PM 32.7 °F 23.9 °F 22.8 °F 67% 30.21 in 10.0 mi SSW 11.5 mph - N/A   Clear
4:55 PM 32.0 °F 23.0 °F 22.8 °F 69% 30.21 in 10.0 mi SSW 11.5 mph - N/A   Clear
5:14 PM 31.8 °F 22.8 °F 22.6 °F 69% 30.21 in 10.0 mi SSW 11.5 mph - N/A   Clear
5:35 PM 31.1 °F 23.1 °F 22.1 °F 69% 30.21 in 10.0 mi SSW 9.2 mph - N/A   Clear
6:15 PM 30.2 °F 20.8 °F 22.1 °F 72% 30.19 in 10.0 mi South 11.5 mph - N/A   Clear
6:35 PM 29.3 °F 20.2 °F 22.1 °F 75% 30.19 in 10.0 mi SSW 10.4 mph - N/A   Clear
6:54 PM 29.5 °F 20.4 °F 22.5 °F 75% 30.18 in 10.0 mi SSW 10.4 mph - N/A   Clear
7:15 PM 29.3 °F 19.1 °F 22.5 °F 76% 30.17 in 10.0 mi South 12.7 mph - N/A   Clear
7:35 PM 29.3 °F 19.6 °F 22.5 °F 76% 30.17 in 10.0 mi SSW 11.5 mph - N/A   Clear
7:54 PM 29.3 °F 19.1 °F 22.3 °F 75% 30.17 in 10.0 mi SSW 12.7 mph - N/A   Clear
8:15 PM 29.3 °F 19.1 °F 22.3 °F 75% 30.16 in 10.0 mi South 12.7 mph - N/A   Clear
8:35 PM 28.4 °F 17.5 °F 22.1 °F 77% 30.15 in 10.0 mi South 13.8 mph - N/A   Clear
8:54 PM 27.5 °F 15.9 °F 22.1 °F 80% 30.14 in 10.0 mi South 15.0 mph - N/A   Clear
9:15 PM 27.3 °F 16.1 °F 22.3 °F 81% 30.14 in 10.0 mi South 13.8 mph - N/A   Clear
9:35 PM 27.1 °F 16.9 °F 22.3 °F 82% 30.14 in 7.0 mi South 11.5 mph - N/A   Clear
9:54 PM 26.6 °F 15.7 °F 22.1 °F 83% 30.13 in 7.0 mi South 12.7 mph - N/A   Clear
10:34 PM 27.1 °F 16.4 °F 22.3 °F 82% 30.14 in 10.0 mi SSW 12.7 mph - N/A   Clear
10:55 PM 26.6 °F 18.2 °F 21.7 °F 82% 30.14 in 7.0 mi SW 8.1 mph - N/A   Clear
11:15 PM 27.7 °F 23.8 °F 22.1 °F 80% 30.15 in 10.0 mi WSW 3.5 mph - N/A   Clear
11:34 PM 28.4 °F 20.4 °F 22.1 °F 77% 30.16 in 10.0 mi SW 8.1 mph - N/A   Clear
11:55 PM 27.9 °F 18.4 °F 21.9 °F 78% 30.16 in 10.0 mi SSW 10.4 mph - N/A   Clear